createdAt,value
2018-07-14T00:01:24.041Z,9.57
2018-07-14T00:06:27.091Z,8.73
2018-07-14T00:11:30.425Z,9.10
2018-07-14T00:16:33.580Z,8.47
2018-07-14T00:21:36.876Z,9.77
2018-07-14T00:26:39.862Z,7.80
2018-07-14T00:31:42.892Z,10.03
2018-07-14T00:36:46.094Z,9.40
2018-07-14T00:41:49.436Z,10.00
2018-07-14T00:46:52.469Z,9.80
2018-07-14T00:51:55.436Z,10.30
2018-07-14T00:56:58.425Z,8.63
2018-07-14T01:02:01.440Z,9.70
2018-07-14T01:07:04.463Z,10.17
2018-07-14T01:12:07.516Z,10.27
2018-07-14T01:17:10.626Z,9.10
2018-07-14T01:22:13.840Z,9.37
2018-07-14T01:27:17.055Z,8.87
2018-07-14T01:32:20.356Z,9.00
2018-07-14T01:37:23.376Z,9.07
2018-07-14T01:42:26.463Z,9.10
2018-07-14T01:47:29.631Z,10.97
2018-07-14T01:52:32.631Z,10.80
2018-07-14T01:57:35.884Z,10.67
2018-07-14T02:02:38.919Z,10.20
2018-07-14T02:07:41.971Z,10.17
2018-07-14T02:12:45.003Z,11.00
2018-07-14T02:17:48.493Z,11.07
2018-07-14T02:22:51.937Z,9.50
2018-07-14T02:27:54.947Z,9.37
2018-07-14T02:32:57.960Z,10.07
2018-07-14T02:38:01.137Z,10.50
2018-07-14T02:43:04.352Z,11.30
2018-07-14T02:48:08.282Z,11.40
2018-07-14T02:53:11.301Z,10.53
2018-07-14T02:58:14.388Z,10.50
2018-07-14T03:03:17.420Z,11.43
2018-07-14T03:08:20.671Z,11.63
2018-07-14T03:13:23.665Z,10.00
2018-07-14T03:18:26.650Z,9.70
2018-07-14T03:23:29.637Z,10.90
2018-07-14T03:28:32.655Z,10.67
2018-07-14T03:33:35.657Z,11.20
2018-07-14T03:38:38.827Z,11.70
2018-07-14T03:43:41.788Z,10.80
2018-07-14T03:48:44.804Z,11.13
2018-07-14T03:53:47.868Z,11.13
2018-07-14T03:58:51.769Z,9.87
2018-07-14T04:03:54.782Z,10.87
2018-07-14T04:08:57.969Z,10.17
2018-07-14T04:14:01.113Z,10.93
2018-07-14T04:19:04.139Z,11.00
2018-07-14T04:24:07.190Z,11.23
2018-07-14T04:29:10.922Z,10.20
2018-07-14T04:34:13.953Z,10.80
2018-07-14T04:39:16.970Z,11.43
2018-07-14T04:44:19.971Z,11.27
2018-07-14T04:49:23.282Z,11.53
2018-07-14T04:54:26.451Z,11.73
2018-07-14T04:59:29.654Z,11.30
2018-07-14T05:04:32.887Z,9.37
2018-07-14T05:09:35.863Z,10.63
2018-07-14T05:14:38.882Z,11.30
2018-07-14T05:19:41.894Z,10.73
2018-07-14T05:24:45.185Z,11.40
2018-07-14T05:29:48.236Z,11.80
2018-07-14T05:34:51.402Z,12.30
2018-07-14T05:39:54.433Z,12.47
2018-07-14T05:44:57.709Z,12.80
2018-07-14T05:50:00.702Z,12.73
2018-07-14T05:55:04.298Z,11.77
2018-07-14T06:00:08.422Z,10.77
2018-07-14T06:05:11.685Z,11.30
2018-07-14T06:10:14.907Z,9.40
2018-07-14T06:15:17.879Z,9.37
2018-07-14T06:20:20.865Z,8.83
2018-07-14T06:25:24.083Z,8.60
2018-07-14T06:30:27.415Z,8.27
2018-07-14T06:35:30.757Z,9.13
2018-07-14T06:40:40.733Z,8.33
2018-07-14T06:45:43.752Z,8.60
2018-07-14T06:50:47.034Z,8.50
2018-07-14T06:55:50.520Z,9.80
2018-07-14T07:00:53.965Z,9.23
2018-07-14T07:05:57.260Z,8.50
2018-07-14T07:11:00.288Z,9.37
2018-07-14T07:16:03.275Z,7.40
2018-07-14T07:21:06.566Z,7.77
2018-07-14T07:26:09.671Z,9.23
2018-07-14T07:31:12.879Z,7.43
2018-07-14T07:36:16.105Z,7.00
2018-07-14T07:41:19.308Z,7.50
2018-07-14T07:46:22.287Z,7.87
2018-07-14T07:51:25.372Z,7.40
2018-07-14T07:56:28.414Z,8.00
2018-07-14T08:01:31.527Z,8.50
2018-07-14T08:06:34.730Z,8.10
2018-07-14T08:11:37.762Z,8.10
2018-07-14T08:16:40.764Z,7.40
2018-07-14T08:21:43.814Z,7.60
2018-07-14T08:26:46.919Z,8.20
2018-07-14T08:31:50.679Z,7.20
2018-07-14T08:36:53.814Z,7.60
2018-07-14T08:41:56.833Z,8.07
2018-07-14T08:47:00.092Z,6.83
2018-07-14T08:52:03.130Z,6.60
2018-07-14T08:57:06.224Z,6.50
2018-07-14T09:02:09.523Z,6.40
2018-07-14T09:07:12.571Z,6.43
2018-07-14T09:12:15.688Z,5.33
2018-07-14T09:17:18.745Z,5.30
2018-07-14T09:22:21.892Z,5.40
2018-07-14T09:27:24.947Z,4.80
2018-07-14T09:32:28.027Z,5.73
2018-07-14T09:37:31.074Z,5.33
2018-07-14T09:42:34.168Z,5.17
2018-07-14T09:47:37.185Z,5.30
2018-07-14T09:52:40.394Z,5.40
2018-07-14T09:57:43.735Z,4.80
2018-07-14T10:02:47.220Z,5.40
2018-07-14T10:07:50.393Z,4.70
2018-07-14T10:12:53.663Z,5.40
2018-07-14T10:17:56.831Z,5.13
2018-07-14T10:23:00.244Z,5.90
2018-07-14T10:28:03.448Z,5.20
2018-07-14T10:33:06.570Z,5.90
2018-07-14T10:38:09.648Z,5.47
2018-07-14T10:43:12.636Z,5.70
2018-07-14T10:48:15.749Z,6.00
2018-07-14T10:53:18.881Z,5.57
2018-07-14T10:58:21.900Z,5.23
2018-07-14T11:03:24.949Z,6.27
2018-07-14T11:08:28.075Z,6.20
2018-07-14T11:13:31.887Z,5.70
2018-07-14T11:18:35.138Z,5.60
2018-07-14T11:23:38.383Z,5.90
2018-07-14T11:28:41.429Z,6.07
2018-07-14T11:33:44.769Z,6.03
2018-07-14T11:38:47.808Z,6.10
2018-07-14T11:43:50.774Z,5.87
2018-07-14T11:48:53.770Z,5.60
2018-07-14T11:53:56.855Z,5.73
2018-07-14T11:58:59.902Z,7.00
2018-07-14T12:04:02.944Z,13.10
2018-07-14T12:09:06.577Z,12.50
2018-07-14T12:14:09.669Z,8.30
2018-07-14T12:19:12.695Z,6.37
2018-07-14T12:24:15.795Z,6.73
2018-07-14T12:29:19.027Z,6.57
2018-07-14T12:34:22.266Z,6.20
2018-07-14T12:39:25.372Z,6.23
2018-07-14T12:44:28.403Z,6.40
2018-07-14T12:49:31.416Z,6.40
2018-07-14T12:54:34.484Z,6.17
2018-07-14T12:59:37.770Z,6.83
2018-07-14T13:04:40.835Z,6.07
2018-07-14T13:09:43.879Z,6.10
2018-07-14T13:14:46.940Z,6.80
2018-07-14T13:19:50.195Z,7.10
2018-07-14T13:24:53.253Z,5.43
2018-07-14T13:29:56.324Z,6.93
2018-07-14T13:34:59.437Z,6.33
2018-07-14T13:40:02.606Z,6.50
2018-07-14T13:45:05.943Z,6.50
2018-07-14T13:50:09.559Z,6.50
2018-07-14T13:55:12.638Z,6.33
2018-07-14T14:00:15.696Z,7.13
2018-07-14T14:05:18.980Z,6.50
2018-07-14T14:10:22.334Z,6.37
2018-07-14T14:15:25.381Z,6.67
2018-07-14T14:20:28.560Z,6.13
2018-07-14T14:25:31.635Z,6.40
2018-07-14T14:30:34.995Z,6.70
2018-07-14T14:35:38.060Z,6.17
2018-07-14T14:40:41.096Z,6.83
2018-07-14T14:45:44.112Z,5.43
2018-07-14T14:50:47.301Z,6.90
2018-07-14T14:55:50.555Z,6.57
2018-07-14T15:00:53.716Z,6.77
2018-07-14T15:05:56.788Z,6.57
2018-07-14T15:10:59.849Z,6.40
2018-07-14T15:16:03.174Z,10.23
2018-07-14T15:21:06.657Z,6.40
2018-07-14T15:26:09.767Z,6.90
2018-07-14T15:31:13.095Z,9.93
2018-07-14T15:36:16.595Z,6.70
2018-07-14T15:41:19.956Z,7.00
2018-07-14T15:46:23.029Z,7.13
2018-07-14T15:51:26.340Z,6.47
2018-07-14T15:56:29.680Z,6.03
2018-07-14T16:01:33.015Z,7.00
2018-07-14T16:06:35.947Z,7.03
2018-07-14T16:11:39.070Z,6.20
2018-07-14T16:16:42.036Z,6.47
2018-07-14T16:21:44.983Z,6.47
2018-07-14T16:26:47.960Z,6.73
2018-07-14T16:31:51.064Z,7.10
2018-07-14T16:36:54.026Z,5.90
2018-07-14T16:41:57.055Z,7.13
2018-07-14T16:47:00.037Z,7.70
2018-07-14T16:52:03.072Z,7.73
2018-07-14T16:57:06.020Z,6.00
2018-07-14T17:02:09.202Z,6.90
2018-07-14T17:07:12.085Z,8.90
2018-07-14T17:12:15.200Z,7.60
2018-07-14T17:17:18.424Z,7.70
2018-07-14T17:22:21.524Z,6.97
2018-07-14T17:27:24.563Z,7.87
2018-07-14T17:32:27.626Z,7.20
2018-07-14T17:37:31.177Z,7.33
2018-07-14T17:42:34.601Z,6.60
2018-07-14T17:47:37.636Z,7.30
2018-07-14T17:52:40.689Z,7.80
2018-07-14T17:57:43.970Z,7.30
2018-07-14T18:02:47.197Z,7.20
2018-07-14T18:07:50.497Z,7.13
2018-07-14T18:12:53.666Z,7.77
2018-07-14T18:17:56.828Z,7.57
2018-07-14T18:22:59.868Z,8.10
2018-07-14T18:28:03.172Z,8.00
2018-07-14T18:33:07.668Z,17.60
2018-07-14T18:38:11.804Z,23.70
2018-07-14T18:43:16.467Z,27.50
2018-07-14T18:48:19.517Z,14.07
2018-07-14T18:53:23.837Z,11.43
2018-07-14T18:58:26.860Z,9.70
2018-07-14T19:03:29.990Z,8.27
2018-07-14T19:08:33.453Z,8.90
2018-07-14T19:13:36.537Z,7.60
2018-07-14T19:18:39.722Z,7.23
2018-07-14T19:23:42.785Z,8.20
2018-07-14T19:28:46.062Z,7.80
2018-07-14T19:33:49.095Z,7.97
2018-07-14T19:38:52.160Z,8.13
2018-07-14T19:43:55.452Z,7.03
2018-07-14T19:48:59.040Z,7.80
2018-07-14T19:54:02.140Z,7.60
2018-07-14T19:59:05.870Z,8.00
2018-07-14T20:04:09.014Z,7.80
2018-07-14T20:09:12.365Z,8.50
2018-07-14T20:14:15.472Z,8.50
2018-07-14T20:19:18.712Z,9.20
2018-07-14T20:24:21.783Z,8.00
2018-07-14T20:29:25.079Z,25.83
2018-07-14T20:34:28.278Z,17.70
2018-07-14T20:39:31.480Z,13.80
2018-07-14T20:44:35.408Z,10.17
2018-07-14T20:49:38.458Z,8.90
2018-07-14T20:54:41.746Z,7.60
2018-07-14T20:59:45.266Z,9.23
2018-07-14T21:04:48.289Z,9.33
2018-07-14T21:09:51.392Z,8.90
2018-07-14T21:14:55.146Z,10.53
2018-07-14T21:19:58.586Z,9.70
2018-07-14T21:25:01.811Z,10.23
2018-07-14T21:30:04.983Z,10.70
2018-07-14T21:35:08.142Z,9.77
2018-07-14T21:40:11.217Z,10.60
2018-07-14T21:45:15.008Z,10.33
2018-07-14T21:50:18.179Z,10.70
2018-07-14T21:55:21.238Z,11.50
2018-07-14T22:00:33.137Z,10.33
2018-07-14T22:05:36.451Z,11.50
2018-07-14T22:10:39.490Z,10.40
2018-07-14T22:15:42.802Z,11.13
2018-07-14T22:20:46.099Z,11.27
2018-07-14T22:25:49.289Z,11.37
2018-07-14T22:30:52.335Z,11.07
2018-07-14T22:35:55.427Z,10.57
2018-07-14T22:40:58.480Z,11.60
2018-07-14T22:46:01.518Z,12.00
2018-07-14T22:51:04.843Z,11.30
2018-07-14T22:56:07.920Z,10.73
2018-07-14T23:01:10.948Z,11.47
2018-07-14T23:06:14.172Z,10.53
2018-07-14T23:11:17.280Z,11.60
2018-07-14T23:16:20.336Z,11.27
2018-07-14T23:21:23.585Z,10.93
2018-07-14T23:26:26.641Z,11.23
2018-07-14T23:31:29.730Z,11.57
2018-07-14T23:36:32.724Z,10.30
2018-07-14T23:41:36.621Z,10.87
2018-07-14T23:46:39.652Z,11.03
2018-07-14T23:51:42.710Z,11.83
2018-07-14T23:56:45.711Z,11.83
